createdAt,value
2023-05-01T00:01:15.925Z,16.109840609469483
2023-05-01T00:04:17.274Z,16.105344381138273
2023-05-01T00:07:16.386Z,16.10213278960955
2023-05-01T00:11:15.797Z,16.082863242824622
2023-05-01T00:14:16.194Z,16.06808992639453
2023-05-01T00:17:16.658Z,16.070016880575075
2023-05-01T00:21:17.040Z,16.04368184365012
2023-05-01T00:24:17.356Z,16.04303952577184
2023-05-01T00:27:17.267Z,16.03725866507193
2023-05-01T00:31:15.782Z,16.012208272962106
2023-05-01T00:34:16.258Z,16.0089966847303
2023-05-01T00:37:17.432Z,15.985873252817328
2023-05-01T00:41:16.593Z,15.985873252817328
2023-05-01T00:44:17.173Z,15.976238491259664
2023-05-01T00:47:16.747Z,15.955684336689682
2023-05-01T00:51:15.856Z,15.938984089530368
2023-05-01T00:54:16.321Z,15.929991650025567
2023-05-01T00:57:16.383Z,15.921641528426335
2023-05-01T01:01:16.205Z,15.876679348410107
2023-05-01T01:04:16.441Z,15.912006773689882
2023-05-01T01:07:22.033Z,15.88053324868124
2023-05-01T01:11:23.000Z,15.865759965197594
2023-05-01T01:14:20.474Z,15.850344367605521
2023-05-01T01:17:26.854Z,15.84713278510353
2023-05-01T01:21:22.552Z,15.85869448264275
2023-05-01T01:24:35.089Z,15.827863292479014
2023-05-01T01:27:38.895Z,15.821440129180337
2023-05-01T01:31:19.992Z,15.810520752616231
2023-05-01T01:34:20.085Z,15.807951487733316
2023-05-01T01:37:21.311Z,15.800886009680472
2023-05-01T01:41:23.113Z,15.790608951676768
2023-05-01T01:44:21.665Z,15.775193366854001
2023-05-01T01:47:18.758Z,15.75528157366798
2023-05-01T01:51:18.302Z,15.752712310349398
2023-05-01T01:54:21.396Z,15.76363167995587
2023-05-01T01:57:19.852Z,15.73344283777924
2023-05-01T02:01:18.463Z,15.737296731965852
2023-05-01T02:04:18.640Z,15.731515890747323
2023-05-01T02:07:18.211Z,15.709034845065707
2023-05-01T02:11:19.652Z,15.696188535748751
2023-05-01T02:14:19.562Z,15.698115482030335
2023-05-01T02:17:18.381Z,15.68912306639977
2023-05-01T02:21:17.727Z,15.68077296696947
2023-05-01T02:24:18.615Z,15.67499212935254
2023-05-01T02:27:20.175Z,15.667284346436281
2023-05-01T02:31:15.733Z,15.63324164638916
2023-05-01T02:34:16.218Z,15.621679977580879
2023-05-01T02:37:16.069Z,15.612045254699478
2023-05-01T02:41:19.256Z,15.59984127385187
2023-05-01T02:44:18.174Z,15.588921923958697
2023-05-01T02:47:21.437Z,15.578002575379742
2023-05-01T02:51:18.969Z,15.572864058856158
2023-05-01T02:54:17.476Z,15.579287204556113
2023-05-01T02:57:17.414Z,15.538179079934434
2023-05-01T03:01:16.881Z,15.520194281269596
2023-05-01T03:04:17.738Z,15.506705684610642
2023-05-01T03:07:17.606Z,15.497713287952138
2023-05-01T03:11:16.513Z,15.479086183423442
2023-05-01T03:14:16.556Z,15.459174455225366
2023-05-01T03:17:16.558Z,15.464955279090736
2023-05-01T03:21:15.869Z,15.441189672222027
2023-05-01T03:24:16.672Z,15.429628027888247
2023-05-01T03:27:16.205Z,15.429628027888247
2023-05-01T03:31:15.764Z,15.416781758134311
2023-05-01T03:34:15.928Z,15.418708698481442
2023-05-01T03:37:16.124Z,15.385950718146342
2023-05-01T03:41:16.146Z,15.35447737563236
2023-05-01T03:44:16.458Z,15.358973566751592
2023-05-01T03:47:16.485Z,15.350623497707511
2023-05-01T03:51:17.360Z,15.342915742348941
2023-05-01T03:54:16.821Z,15.332638736222815
2023-05-01T03:57:16.874Z,15.297311536543202
2023-05-01T04:01:15.971Z,15.288961473174368
2023-05-01T04:04:16.105Z,15.283180660523067
2023-05-01T04:07:16.332Z,15.278042160697805
2023-05-01T04:11:16.013Z,15.265838224779236
2023-05-01T04:14:16.431Z,15.22858411476127
2023-05-01T04:17:16.480Z,15.202891634006756
2023-05-01T04:21:17.816Z,15.190045396357982
2023-05-01T04:24:16.807Z,15.161141368298923
2023-05-01T04:27:16.495Z,15.188118460867553
2023-05-01T04:31:15.972Z,15.18426459000948
2023-05-01T04:34:16.397Z,15.15471825220302
2023-05-01T04:37:18.035Z,15.148937448105517
2023-05-01T04:41:16.283Z,15.108471829736663
2023-05-01T04:44:16.689Z,15.133521972312973
2023-05-01T04:47:16.640Z,15.102048717369689
2023-05-01T04:51:16.522Z,15.136733529553748
2023-05-01T04:54:16.076Z,15.123244989906471
2023-05-01T04:57:16.228Z,15.160499056668868
2023-05-01T05:01:15.825Z,15.1360912180965
2023-05-01T05:04:16.281Z,15.14379895588363
2023-05-01T05:07:16.880Z,15.149579759653715
2023-05-01T05:11:15.637Z,15.163068303216368
2023-05-01T05:14:16.322Z,15.165637549836628
2023-05-01T05:17:16.130Z,15.177199160528199
2023-05-01T05:21:16.159Z,15.180410719315114
2023-05-01T05:24:16.430Z,15.172060666705601
2023-05-01T05:27:16.629Z,15.187476149046507
2023-05-01T05:31:16.358Z,15.178483784029321
2023-05-01T05:34:17.388Z,15.19582620307483
2023-05-01T05:37:16.632Z,15.207387817613562
2023-05-01T05:41:17.759Z,15.21830712158635
2023-05-01T05:44:17.057Z,15.239503421285189
2023-05-01T05:47:16.912Z,15.251707353661278
2023-05-01T05:51:17.010Z,15.259415101270951
2023-05-01T05:54:16.963Z,15.282538348028993
2023-05-01T05:57:16.892Z,15.297953849141868
2023-05-01T06:01:16.386Z,15.31401166558644
2023-05-01T06:04:16.754Z,15.35447737563236
2023-05-01T06:07:17.603Z,15.390446910825357
2023-05-01T06:11:16.587Z,15.422562579298482
2023-05-01T06:14:17.038Z,15.452751318029186
2023-05-01T06:17:16.559Z,15.498355601969616
2023-05-01T06:21:15.556Z,15.526617423240623
2023-05-01T06:24:16.487Z,15.567725542623611
2023-05-01T06:27:16.020Z,15.609475995437242
2023-05-01T06:31:15.736Z,15.643518686566768
2023-05-01T06:34:16.080Z,15.65764961871182
2023-05-01T06:37:15.830Z,15.687838435668164
2023-05-01T06:41:17.584Z,15.704538636597864
2023-05-01T06:44:19.468Z,15.735369784852082
2023-05-01T06:47:17.166Z,15.750785362908209
2023-05-01T06:51:18.039Z,15.77390873490367
2023-05-01T06:54:17.081Z,15.777120314813601
2023-05-01T06:57:17.627Z,15.77262410297153
2023-05-01T07:01:16.478Z,15.802812958185768
2023-05-01T07:04:16.082Z,15.806666855319145
2023-05-01T07:07:15.887Z,15.93127628418597
2023-05-01T07:11:16.533Z,15.956968971213882
2023-05-01T07:14:16.673Z,15.973669221683759
2023-05-01T07:17:16.409Z,15.995508015398173
2023-05-01T07:21:43.070Z,16.014135225955762
2023-05-01T07:24:19.363Z,16.05203197648161
2023-05-01T07:27:19.443Z,16.07194383479655
2023-05-01T07:31:17.132Z,16.1310371174608
2023-05-01T07:34:17.515Z,16.170860873139826
2023-05-01T07:37:16.556Z,16.190772757534525
2023-05-01T07:41:17.134Z,16.23509277397279
2023-05-01T07:44:17.138Z,16.26142786645878
2023-05-01T07:47:16.959Z,16.294186162902406
2023-05-01T07:51:16.885Z,16.356491190740872
2023-05-01T07:54:17.093Z,16.396315045382018
2023-05-01T07:57:16.911Z,16.445773727901177
2023-05-01T08:01:15.628Z,16.474035844303216
2023-05-01T08:04:17.202Z,16.495874758462016
2023-05-01T08:07:16.131Z,16.540837245341756
2023-05-01T08:11:16.563Z,16.590938328398625
2023-05-01T08:14:17.851Z,16.626908353809267
2023-05-01T08:17:16.925Z,16.664163038018522
2023-05-01T08:21:16.647Z,16.6815057410583
2023-05-01T08:24:17.030Z,16.712337221314463
2023-05-01T08:27:17.069Z,16.74638032626863
2023-05-01T08:31:15.931Z,16.79519687641914
2023-05-01T08:34:17.200Z,16.8420864822162
2023-05-01T08:37:16.178Z,16.890260759985903
2023-05-01T08:41:20.752Z,16.898610970733806
2023-05-01T08:44:17.401Z,16.91209977433464
2023-05-01T08:47:17.756Z,16.944858305714387
2023-05-01T08:51:20.632Z,16.965412684383864
2023-05-01T08:54:18.848Z,16.97954382242033
2023-05-01T08:57:16.679Z,17.008448429804776
2023-05-01T09:01:17.648Z,17.04506094571125
2023-05-01T09:04:16.894Z,17.073323248796168
2023-05-01T09:07:16.911Z,17.077177199898962
2023-05-01T09:11:15.968Z,17.109935790882446
2023-05-01T09:14:17.361Z,17.14590602205717
2023-05-01T09:17:16.359Z,17.156825559342632
2023-05-01T09:21:15.982Z,17.204357678131874
2023-05-01T09:24:16.514Z,17.213350243947296
2023-05-01T09:27:16.454Z,17.2698749637676
2023-05-01T09:31:25.222Z,17.305202931538226
2023-05-01T09:34:21.285Z,17.34566952970572
2023-05-01T09:37:25.542Z,17.368150980931023
2023-05-01T09:41:16.001Z,17.397698039584792
2023-05-01T09:44:17.471Z,17.418894848459693
2023-05-01T09:47:21.471Z,17.447799595815376
2023-05-01T09:51:21.224Z,17.490835570051512
2023-05-01T09:54:19.148Z,17.529375265797807
2023-05-01T09:57:16.599Z,17.571768950027128
2023-05-01T10:01:16.707Z,17.59103881304336
2023-05-01T10:04:16.864Z,17.63343252608547
2023-05-01T10:07:16.726Z,17.65527171932272
2023-05-01T10:11:16.612Z,17.708585066070373
2023-05-01T10:14:17.341Z,17.761898444145572
2023-05-01T10:17:17.923Z,17.799153594407198
2023-05-01T10:21:16.899Z,17.874306271662135
2023-05-01T10:24:17.197Z,17.917342448206274
2023-05-01T10:27:18.829Z,17.95267066808883
2023-05-01T10:31:16.348Z,17.995064550105962
2023-05-01T10:34:18.923Z,18.018830825962596
2023-05-01T10:37:22.125Z,18.07342905083351
2023-05-01T10:41:59.158Z,18.12738497592509
2023-05-01T10:44:21.152Z,18.180698600091365
2023-05-01T10:47:48.654Z,18.242362590006177
2023-05-01T10:51:21.048Z,18.271909933359076
2023-05-01T10:54:25.266Z,18.34256666300289
2023-05-01T10:57:41.250Z,18.354771012787022
2023-05-01T11:01:27.974Z,18.399092086335532
2023-05-01T11:04:49.932Z,18.470391250081956
2023-05-01T11:07:19.237Z,18.495442320915846
2023-05-01T11:11:48.588Z,18.57766126866636
2023-05-01T11:14:16.662Z,18.630975157418288
2023-05-01T11:17:44.559Z,18.683004404356417
2023-05-01T11:21:16.501Z,18.732464333429014
2023-05-01T11:24:18.021Z,18.788989999669504
2023-05-01T11:27:16.779Z,18.847442714295994
2023-05-01T11:31:17.092Z,18.952786163216025
2023-05-01T11:34:16.947Z,19.022801084121237
2023-05-01T11:37:16.744Z,19.0581297344449
2023-05-01T11:41:20.320Z,19.092816059054986
2023-05-01T11:44:17.752Z,19.15062662953942
2023-05-01T11:47:16.476Z,19.191094050795073
2023-05-01T11:51:16.245Z,19.205225535485443
2023-05-01T11:54:16.702Z,19.230276809209407
2023-05-01T11:57:16.603Z,19.2668902217094
2023-05-01T12:01:17.813Z,19.29258385333851
2023-05-01T12:04:23.862Z,19.351036892399954
2023-05-01T12:07:23.668Z,19.38122693831101
2023-05-01T12:11:17.108Z,19.392146744625006
2023-05-01T12:14:18.403Z,19.40884762741198
2023-05-01T12:17:17.052Z,19.419125095270374
2023-05-01T12:21:17.752Z,19.46087732041633
2023-05-01T12:24:18.071Z,19.481432269084326
2023-05-01T12:27:17.259Z,19.49042506059086
2023-05-01T12:31:16.437Z,19.523826865418595
2023-05-01T12:34:16.257Z,19.576498967246152
2023-05-01T12:37:16.298Z,19.584207082273497
2023-05-01T12:41:16.164Z,19.600265657350338
2023-05-01T12:44:18.706Z,19.651010773274173
2023-05-01T12:47:16.861Z,19.692120761414117
2023-05-01T12:51:18.736Z,19.726807328395445
2023-05-01T12:54:21.045Z,19.744792960939595
2023-05-01T12:57:16.418Z,19.775625482167015
2023-05-01T13:01:24.214Z,19.774340793573355
2023-05-01T13:04:20.909Z,19.783333614110962
2023-05-01T13:07:18.449Z,19.796180502139396
2023-05-01T13:11:17.337Z,19.773056104997885
2023-05-01T13:14:17.096Z,19.779479548057132
2023-05-01T13:17:23.630Z,19.79425346881917
2023-05-01T13:21:19.772Z,19.79425346881917
2023-05-01T13:24:17.069Z,19.801319257860087
2023-05-01T13:27:21.190Z,19.79232643553987
2023-05-01T13:31:16.854Z,19.769202039380616
2023-05-01T13:34:21.092Z,19.762778597048964
2023-05-01T13:37:17.447Z,19.726164984441947
2023-05-01T13:41:18.524Z,19.731946080187118
2023-05-01T13:44:18.500Z,19.690193730303964
2023-05-01T13:47:18.135Z,19.663857642567017
2023-05-01T13:51:20.441Z,19.632382816030532
2023-05-01T13:54:18.207Z,19.619535951194212
2023-05-01T13:57:17.584Z,19.637521562474376
2023-05-01T14:01:18.583Z,19.604119715791693
2023-05-01T14:04:18.326Z,19.58099536759919
2023-05-01T14:07:18.983Z,19.584207082273497
2023-05-01T14:11:17.720Z,19.567506167208556
2023-05-01T14:14:17.555Z,19.561725081940768
2023-05-01T14:17:17.409Z,19.554016968823362
2023-05-01T14:21:17.844Z,19.555301654297455
2023-05-01T14:24:18.451Z,19.534104346300957
2023-05-01T14:27:18.577Z,19.494921456678366
2023-05-01T14:31:25.366Z,19.479505242448887
2023-05-01T14:34:17.947Z,19.48014758465615
2023-05-01T14:37:17.634Z,19.493636772059197
2023-05-01T14:41:17.012Z,19.479505242448887
2023-05-01T14:44:18.684Z,19.493636772059197
2023-05-01T14:47:19.683Z,19.47308182062634
2023-05-01T14:51:19.355Z,19.450599847828563
2023-05-01T14:54:18.463Z,19.49042506059086
2023-05-01T14:57:17.100Z,19.527038578069277
2023-05-01T15:01:17.250Z,19.526396235530047
2023-05-01T15:04:17.014Z,19.535389031493104
2023-05-01T15:07:17.560Z,19.58613411113265
2023-05-01T15:11:18.862Z,19.563652110322437
2023-05-01T15:14:17.325Z,19.530250290833646
2023-05-01T15:17:17.382Z,19.532819661126997
2023-05-01T15:21:16.983Z,19.50584127667571
2023-05-01T15:24:20.238Z,19.423621487824494
2023-05-01T15:27:18.138Z,19.478220558047997
2023-05-01T15:31:16.097Z,19.495563798994773
2023-05-01T15:34:16.470Z,19.442249402208198
2023-05-01T15:37:17.378Z,19.403708893919337
2023-05-01T15:41:18.876Z,19.282306399813752
2023-05-01T15:44:17.453Z,19.29579555780374
2023-05-01T15:47:17.368Z,19.269459584544894
2023-05-01T15:51:16.652Z,19.237984894823693
2023-05-01T15:54:17.146Z,19.20715255629557
2023-05-01T15:57:18.226Z,19.173108528008743
2023-05-01T16:01:16.490Z,19.01766237249285
2023-05-01T16:04:16.869Z,19.149341949795144
2023-05-01T16:07:16.804Z,19.18274362905804
2023-05-01T16:11:16.763Z,19.13906451249577
2023-05-01T16:14:17.500Z,19.13585281357846
2023-05-01T16:17:17.689Z,19.10309349111567
2023-05-01T16:21:19.595Z,19.082538628158453
2023-05-01T16:24:18.555Z,19.070976519791383
2023-05-01T16:27:18.070Z,19.01830471143048
2023-05-01T16:31:27.045Z,18.978479705896554
2023-05-01T16:34:23.765Z,19.01830471143048
2023-05-01T16:37:20.081Z,19.02344342309525
2023-05-01T16:41:17.626Z,18.924523274671174
2023-05-01T16:44:18.538Z,18.92066924509718
2023-05-01T16:47:17.442Z,18.887910000327974
2023-05-01T16:51:16.847Z,18.83009959723604
2023-05-01T16:54:17.509Z,18.82496089652159
2023-05-01T16:57:17.512Z,18.783208964005553
2023-05-01T17:01:17.451Z,18.705486186956115
2023-05-01T17:04:16.791Z,18.69007010685891
2023-05-01T17:07:16.811Z,18.662449636568727
2023-05-01T17:11:16.476Z,18.618770770481298
2023-05-01T17:14:16.791Z,18.630332821222783
2023-05-01T17:17:18.332Z,18.598216017245523
2023-05-01T17:21:16.518Z,18.532697772383926
2023-05-01T17:24:16.779Z,18.52113573408433
2023-05-01T17:27:16.732Z,18.504435014697172
2023-05-01T17:31:18.346Z,18.453690540035314
2023-05-01T17:34:16.645Z,18.417077455690105
2023-05-01T17:37:16.874Z,18.38881473401934
2023-05-01T17:41:16.487Z,18.327792978618525
2023-05-01T17:44:16.631Z,18.308522959123728
2023-05-01T17:47:16.555Z,18.27576393537538
2023-05-01T17:51:17.003Z,18.20767659052226
2023-05-01T17:54:17.901Z,18.192260595008065
2023-05-01T17:57:17.297Z,18.148581955275677
2023-05-01T18:01:16.554Z,18.07342905083351
2023-05-01T18:04:17.105Z,18.043239440079287
2023-05-01T18:07:17.151Z,17.993137555039084
2023-05-01T18:11:16.684Z,17.96037864516402
2023-05-01T18:14:17.149Z,17.930189072026497
2023-05-01T18:17:16.966Z,17.897430184879703
2023-05-01T18:21:17.159Z,17.876233264205165
2023-05-01T18:24:17.027Z,17.834481768269324
2023-05-01T18:27:17.505Z,17.828058462907574
2023-05-01T18:31:17.588Z,17.75932912400176
2023-05-01T18:34:17.671Z,17.724643309181648
2023-05-01T18:37:17.476Z,17.709869725414684
2023-05-01T18:41:17.144Z,17.672614611814787
2023-05-01T18:44:17.687Z,17.646921438934804
2023-05-01T18:47:18.156Z,17.630863209579637
2023-05-01T18:51:17.382Z,17.57048429263823
2023-05-01T18:54:17.730Z,17.542864163176638
2023-05-01T18:57:18.840Z,17.51524404212332
2023-05-01T19:01:22.302Z,17.47220805630932
2023-05-01T19:04:18.663Z,17.46257313690885
2023-05-01T19:07:16.929Z,17.406048297035248
2023-05-01T19:11:16.588Z,17.388063128096928
2023-05-01T19:14:16.950Z,17.389990110312645
2023-05-01T19:17:18.693Z,17.379070544964726
2023-05-01T19:21:16.285Z,17.35466210952736
2023-05-01T19:24:16.535Z,17.354019782367686
2023-05-01T19:27:18.241Z,17.31869179558862
2023-05-01T19:31:19.927Z,17.275655903006918
2023-05-01T19:34:16.683Z,17.269232637208187
2023-05-01T19:37:16.696Z,17.240970273096174
2023-05-01T19:41:16.915Z,17.216561874811667
2023-05-01T19:44:20.078Z,17.19279580910743
2023-05-01T19:47:18.657Z,17.154256256333703
2023-05-01T19:51:16.957Z,17.078461850302936
2023-05-01T19:54:17.755Z,17.078461850302936
2023-05-01T19:57:22.857Z,17.055980470859502
2023-05-01T20:01:17.106Z,17.002667507591195
2023-05-01T20:04:17.498Z,16.972478253126972
2023-05-01T20:07:18.482Z,16.955777818802744
2023-05-01T20:11:16.678Z,16.909530478256055
2023-05-01T20:14:17.095Z,16.892187731628745
2023-05-01T20:17:17.316Z,16.86007154292465
2023-05-01T20:21:16.447Z,16.801620108657517
2023-05-01T20:24:16.977Z,16.766934659972684
2023-05-01T20:27:16.883Z,16.751518909258085
2023-05-01T20:31:17.377Z,16.706556317968353
2023-05-01T20:34:19.246Z,16.700133092460238
2023-05-01T20:37:17.122Z,16.68728664280825
2023-05-01T20:41:16.976Z,16.635258540319136
2023-05-01T20:44:17.720Z,16.61855816806792
2023-05-01T20:47:17.511Z,16.590296006645893
2023-05-01T20:51:16.387Z,16.526063854337643
2023-05-01T20:54:16.596Z,16.517071356643374
2023-05-01T20:57:17.031Z,16.507436538674302
2023-05-01T21:01:16.962Z,16.466327993502272
2023-05-01T21:04:17.321Z,16.441919803619385
2023-05-01T21:07:17.497Z,16.448985331594393
2023-05-01T21:11:16.707Z,16.42843106992232
2023-05-01T21:14:16.782Z,16.392461123201155
2023-05-01T21:17:17.746Z,16.39117648251058
2023-05-01T21:21:16.705Z,16.346214069800133
2023-05-01T21:24:21.893Z,16.33722158993196
2023-05-01T21:27:17.209Z,16.330156070660813
2023-05-01T21:31:16.467Z,16.297397761229604
2023-05-01T21:34:18.334Z,16.292259203960658
2023-05-01T21:37:18.949Z,16.26142786645878
2023-05-01T21:41:16.701Z,16.251793075638126
2023-05-01T21:44:17.609Z,16.21325392258732
2023-05-01T21:47:17.328Z,16.211969284434236
2023-05-01T21:51:17.269Z,16.17150319192306
2023-05-01T21:54:17.657Z,16.18178029307319
2023-05-01T21:57:17.180Z,16.149022037215765
2023-05-01T22:01:18.443Z,16.131679435962088
2023-05-01T22:04:17.571Z,16.1310371174608
2023-05-01T22:07:17.079Z,16.1214023404872
2023-05-01T22:11:16.333Z,16.069374562510347
2023-05-01T22:14:17.522Z,16.070659198644353
2023-05-01T22:17:24.188Z,16.03918561859764
2023-05-01T22:21:16.590Z,16.001931191020503
2023-05-01T22:24:16.974Z,15.989727157726884
2023-05-01T22:27:16.791Z,16.000004238286056
2023-05-01T22:31:16.437Z,15.96274982679788
2023-05-01T22:34:16.662Z,15.922926162468503
2023-05-01T22:37:16.941Z,15.937699455260827
2023-05-01T22:41:17.126Z,15.90237201997661
2023-05-01T22:44:17.164Z,15.872183131634028
2023-05-01T22:47:17.385Z,15.852271317161286
2023-05-01T22:51:16.907Z,15.874110081653635
2023-05-01T22:54:17.118Z,15.825294027104974
2023-05-01T22:57:17.018Z,15.825936343441663
2023-05-01T23:01:16.514Z,15.815016966336406
2023-05-01T23:04:17.065Z,15.804739906731992
2023-05-01T23:07:16.913Z,15.77647799882252
2023-05-01T23:11:17.550Z,15.755923889508995
2023-05-01T23:14:17.377Z,15.703254005647977
2023-05-01T23:17:17.629Z,15.730873575079112
2023-05-01T23:21:18.399Z,15.751427678717391
2023-05-01T23:24:19.419Z,15.704538636597864
2023-05-01T23:27:18.434Z,15.692334643308367
2023-05-01T23:31:23.522Z,15.68912306639977
2023-05-01T23:34:17.297Z,15.669211292103956
2023-05-01T23:37:16.917Z,15.671138237812556
2023-05-01T23:41:16.917Z,15.648014892010542
2023-05-01T23:44:17.138Z,15.648657207092128
2023-05-01T23:47:17.212Z,15.669211292103956
2023-05-01T23:51:16.991Z,15.636453221319607
2023-05-01T23:54:17.304Z,15.597914329657579
2023-05-01T23:57:17.205Z,15.59277581200622
